Hydaburg, Alaska
Current Conditions -  °F | °C
As of 6:36 PM on Friday 24 Oct 2014 (Local Time) from PAHY Reporting Station
Overcast Overcast  
Wind Chill: 45°   Ceiling: 2500
Heat Index: 48°   Visibility: 10mi
Dew Point: 39°   Wind: 8mph
Humidity: 71%   Direction: 50°NE
Pressure: 29.8"   Gusts: 17mph
Location:  55.21°N, 132.82°W
Report Text: PAHY 250236Z AUTO 05007G15KT 10SM SCT019 BKN025 OVC039 09/04 A2980 RMK AO1
Loading
Personal Weather Stations






























Interactive Weather Map
Tropical Storm Tracking
New forecast layout! Learn more

10-Day Weather Forecast

Advertisements
Track Severe Weather on mobile